Val-d'Or Airport
CYVO : now visible

Airfield :











YOU CAN JOIN US ON...

 
LOGIN :

Register | Disclaimer

   EN    FR    IT 

 









Legend :    VFR   Marginal VFR   IFR   Intensive IFR   Very Intensive IFR
Visi :
Ceiling :
>= 8 km
>= 3000ft
5 to 8 km
1000 to 3000 ft
1500m to 5 km
500 to 1000 ft
800 to 1500m
200 to 500 ft
< 800m
< 200 ft
Symbols :   Thunderstorms  Fog  Heavy snow  Heavy precipitations  Wind > 20 kt






- Airport Elevation : 1107 ft
- IATA code : YVO


CYVO - Val-d'Or

CURRENT METAR :
  • 171100Z 16002KT 10SM SKC M29/M32 A3018 RMK SLP264

EXPIRED METARs :
  • 171027Z AUTO 00000KT 7SM CLR M29/M32 A3017 RMK SLP260
  • 171020Z AUTO 00000KT 5SM BR CLR M29/M31 A3017 RMK SLP259
  • 171000Z AUTO 18002KT 9SM CLR M29/M32 A3016 RMK SLP257
  • 170900Z AUTO 18002KT 9SM CLR M28/M30 A3014 RMK SLP247

TAF TAF CYVO
Valid from the 17 at 12:00 until the 18 at 00:00 UTC


171139Z 1712/1724 VRB03KT P6SM SKC
BECMG 1716/1718 23006KT
BECMG 1722/1724 16005KT RMK NXT FCST BY 171800Z



MET'MAP, your aeronautical weather chart ! - Copyright ORBIFLY December 2007 - Disclaimer

ORBIFLY MET'MAP TEAM :

Programming & Development : Alexandra Zaïnal
Concept & original design : Baudouin d'Aumeries
Assistance for programming : Marc-Olivier Méhu
Technical & hardware support : Manuel Goepfert

Contact : metmap@orbifly.com




SOURCES & CREDITS :

   NOAA       Earth
Advisory